sensor_id;sensor_type;location;lat;lon;timestamp;temperature;humidity
47660;DHT22;33403;43.608;1.458;2023-04-30T00:00:48;15.90;99.90
47660;DHT22;33403;43.608;1.458;2023-04-30T00:03:14;16.00;99.90
47660;DHT22;33403;43.608;1.458;2023-04-30T00:05:40;15.90;99.90
47660;DHT22;33403;43.608;1.458;2023-04-30T00:08:05;15.80;99.90
47660;DHT22;33403;43.608;1.458;2023-04-30T00:10:31;15.90;99.90
47660;DHT22;33403;43.608;1.458;2023-04-30T00:12:57;15.90;99.90
47660;DHT22;33403;43.608;1.458;2023-04-30T00:15:22;15.80;99.90
47660;DHT22;33403;43.608;1.458;2023-04-30T00:17:48;15.80;99.90
47660;DHT22;33403;43.608;1.458;2023-04-30T00:20:14;15.70;99.90
47660;DHT22;33403;43.608;1.458;2023-04-30T00:22:40;15.70;99.90
47660;DHT22;33403;43.608;1.458;2023-04-30T00:25:05;15.60;99.90
47660;DHT22;33403;43.608;1.458;2023-04-30T00:27:31;15.70;99.90
47660;DHT22;33403;43.608;1.458;2023-04-30T00:29:57;15.60;99.90
47660;DHT22;33403;43.608;1.458;2023-04-30T00:32:23;15.70;99.90
47660;DHT22;33403;43.608;1.458;2023-04-30T00:34:48;15.60;99.90
47660;DHT22;33403;43.608;1.458;2023-04-30T00:37:14;15.70;99.90
47660;DHT22;33403;43.608;1.458;2023-04-30T00:39:40;15.70;99.90
47660;DHT22;33403;43.608;1.458;2023-04-30T00:42:06;15.70;99.90
47660;DHT22;33403;43.608;1.458;2023-04-30T00:44:32;15.70;99.90
47660;DHT22;33403;43.608;1.458;2023-04-30T00:46:58;15.70;99.90
47660;DHT22;33403;43.608;1.458;2023-04-30T00:49:24;15.70;99.90
47660;DHT22;33403;43.608;1.458;2023-04-30T00:51:50;15.70;99.90
47660;DHT22;33403;43.608;1.458;2023-04-30T00:54:17;15.60;99.90
47660;DHT22;33403;43.608;1.458;2023-04-30T00:56:44;15.60;99.90
47660;DHT22;33403;43.608;1.458;2023-04-30T00:59:12;15.70;99.90
47660;DHT22;33403;43.608;1.458;2023-04-30T01:01:38;15.60;99.90
47660;DHT22;33403;43.608;1.458;2023-04-30T01:04:04;15.60;99.90
47660;DHT22;33403;43.608;1.458;2023-04-30T01:06:30;15.60;99.90
47660;DHT22;33403;43.608;1.458;2023-04-30T01:08:56;15.50;99.90
47660;DHT22;33403;43.608;1.458;2023-04-30T01:11:42;15.60;99.90
47660;DHT22;33403;43.608;1.458;2023-04-30T01:14:16;15.50;99.90
47660;DHT22;33403;43.608;1.458;2023-04-30T01:16:50;15.50;99.90
47660;DHT22;33403;43.608;1.458;2023-04-30T01:19:43;15.60;99.90
47660;DHT22;33403;43.608;1.458;2023-04-30T01:22:22;15.50;99.90
47660;DHT22;33403;43.608;1.458;2023-04-30T01:25:20;15.50;99.90
47660;DHT22;33403;43.608;1.458;2023-04-30T01:30:26;15.40;99.90
47660;DHT22;33403;43.608;1.458;2023-04-30T01:32:53;15.40;99.90
47660;DHT22;33403;43.608;1.458;2023-04-30T01:35:18;15.40;99.90
47660;DHT22;33403;43.608;1.458;2023-04-30T01:43:11;15.40;99.90
47660;DHT22;33403;43.608;1.458;2023-04-30T01:48:48;15.30;99.90
47660;DHT22;33403;43.608;1.458;2023-04-30T01:51:29;15.40;99.90
47660;DHT22;33403;43.608;1.458;2023-04-30T01:54:02;15.40;99.90
47660;DHT22;33403;43.608;1.458;2023-04-30T01:56:40;15.40;99.90
47660;DHT22;33403;43.608;1.458;2023-04-30T01:59:09;15.40;99.90
47660;DHT22;33403;43.608;1.458;2023-04-30T02:01:36;15.30;99.90
47660;DHT22;33403;43.608;1.458;2023-04-30T02:04:01;15.30;99.90
47660;DHT22;33403;43.608;1.458;2023-04-30T02:06:28;15.30;99.90
47660;DHT22;33403;43.608;1.458;2023-04-30T02:08:55;15.30;99.90
47660;DHT22;33403;43.608;1.458;2023-04-30T02:11:23;15.30;99.90
47660;DHT22;33403;43.608;1.458;2023-04-30T02:13:49;15.30;99.90
47660;DHT22;33403;43.608;1.458;2023-04-30T02:16:15;15.30;99.90
47660;DHT22;33403;43.608;1.458;2023-04-30T02:18:41;15.30;99.90
47660;DHT22;33403;43.608;1.458;2023-04-30T02:21:07;15.30;99.90
47660;DHT22;33403;43.608;1.458;2023-04-30T02:23:32;15.30;99.90
47660;DHT22;33403;43.608;1.458;2023-04-30T02:25:58;15.30;99.90
47660;DHT22;33403;43.608;1.458;2023-04-30T02:28:24;15.30;99.90
47660;DHT22;33403;43.608;1.458;2023-04-30T02:30:49;15.30;99.90
47660;DHT22;33403;43.608;1.458;2023-04-30T02:33:15;15.30;99.90
47660;DHT22;33403;43.608;1.458;2023-04-30T02:35:41;15.30;99.90
47660;DHT22;33403;43.608;1.458;2023-04-30T02:38:07;15.20;99.90
47660;DHT22;33403;43.608;1.458;2023-04-30T02:40:32;15.20;99.90
47660;DHT22;33403;43.608;1.458;2023-04-30T02:42:58;15.20;99.90
47660;DHT22;33403;43.608;1.458;2023-04-30T02:45:25;15.20;99.90
47660;DHT22;33403;43.608;1.458;2023-04-30T02:47:51;15.20;99.90
47660;DHT22;33403;43.608;1.458;2023-04-30T02:50:17;15.30;99.90
47660;DHT22;33403;43.608;1.458;2023-04-30T02:52:44;15.20;99.90
47660;DHT22;33403;43.608;1.458;2023-04-30T02:55:10;15.20;99.90
47660;DHT22;33403;43.608;1.458;2023-04-30T02:57:36;15.30;99.90
47660;DHT22;33403;43.608;1.458;2023-04-30T03:00:02;15.30;99.90
47660;DHT22;33403;43.608;1.458;2023-04-30T03:02:28;15.30;99.90
47660;DHT22;33403;43.608;1.458;2023-04-30T03:04:53;15.30;99.90
47660;DHT22;33403;43.608;1.458;2023-04-30T03:07:19;15.30;99.90
47660;DHT22;33403;43.608;1.458;2023-04-30T03:09:45;15.30;99.90
47660;DHT22;33403;43.608;1.458;2023-04-30T03:12:11;15.30;99.90
47660;DHT22;33403;43.608;1.458;2023-04-30T03:14:36;15.30;99.90
47660;DHT22;33403;43.608;1.458;2023-04-30T03:17:02;15.30;99.90
47660;DHT22;33403;43.608;1.458;2023-04-30T03:19:27;15.30;99.90
47660;DHT22;33403;43.608;1.458;2023-04-30T03:21:53;15.30;99.90
47660;DHT22;33403;43.608;1.458;2023-04-30T03:24:19;15.30;99.90
47660;DHT22;33403;43.608;1.458;2023-04-30T03:26:48;15.30;99.90
47660;DHT22;33403;43.608;1.458;2023-04-30T03:29:13;15.30;99.90
47660;DHT22;33403;43.608;1.458;2023-04-30T03:31:39;15.30;99.90
47660;DHT22;33403;43.608;1.458;2023-04-30T03:34:05;15.40;99.90
47660;DHT22;33403;43.608;1.458;2023-04-30T03:36:31;15.30;99.90
47660;DHT22;33403;43.608;1.458;2023-04-30T03:38:57;15.30;99.90
47660;DHT22;33403;43.608;1.458;2023-04-30T03:41:23;15.30;99.90
47660;DHT22;33403;43.608;1.458;2023-04-30T03:43:48;15.30;99.90
47660;DHT22;33403;43.608;1.458;2023-04-30T03:46:14;15.30;99.90
47660;DHT22;33403;43.608;1.458;2023-04-30T03:48:40;15.30;99.90
47660;DHT22;33403;43.608;1.458;2023-04-30T03:51:05;15.30;99.90
47660;DHT22;33403;43.608;1.458;2023-04-30T03:53:31;15.30;99.90
47660;DHT22;33403;43.608;1.458;2023-04-30T03:55:57;15.30;99.90
47660;DHT22;33403;43.608;1.458;2023-04-30T03:58:23;15.30;99.90
47660;DHT22;33403;43.608;1.458;2023-04-30T04:00:49;15.30;99.90
47660;DHT22;33403;43.608;1.458;2023-04-30T04:03:15;15.40;99.90
47660;DHT22;33403;43.608;1.458;2023-04-30T04:05:41;15.30;99.90
47660;DHT22;33403;43.608;1.458;2023-04-30T04:08:07;15.20;99.90
47660;DHT22;33403;43.608;1.458;2023-04-30T04:10:34;15.30;99.90
47660;DHT22;33403;43.608;1.458;2023-04-30T04:12:59;15.30;99.90
47660;DHT22;33403;43.608;1.458;2023-04-30T04:15:25;15.20;99.90
47660;DHT22;33403;43.608;1.458;2023-04-30T04:17:51;15.30;99.90
47660;DHT22;33403;43.608;1.458;2023-04-30T04:20:16;15.30;99.90
47660;DHT22;33403;43.608;1.458;2023-04-30T04:22:42;15.30;99.90
47660;DHT22;33403;43.608;1.458;2023-04-30T04:25:08;15.20;99.90
47660;DHT22;33403;43.608;1.458;2023-04-30T04:27:35;15.30;99.90
47660;DHT22;33403;43.608;1.458;2023-04-30T04:30:02;15.30;99.90
47660;DHT22;33403;43.608;1.458;2023-04-30T04:32:28;15.30;99.90
47660;DHT22;33403;43.608;1.458;2023-04-30T04:34:55;15.30;99.90
47660;DHT22;33403;43.608;1.458;2023-04-30T04:37:21;15.30;99.90
47660;DHT22;33403;43.608;1.458;2023-04-30T04:39:47;15.30;99.90
47660;DHT22;33403;43.608;1.458;2023-04-30T04:42:14;15.20;99.90
47660;DHT22;33403;43.608;1.458;2023-04-30T04:44:41;15.20;99.90
47660;DHT22;33403;43.608;1.458;2023-04-30T04:47:07;15.30;99.90
47660;DHT22;33403;43.608;1.458;2023-04-30T04:49:34;15.20;99.90
47660;DHT22;33403;43.608;1.458;2023-04-30T04:52:00;15.30;99.90
47660;DHT22;33403;43.608;1.458;2023-04-30T04:54:26;15.30;99.90
47660;DHT22;33403;43.608;1.458;2023-04-30T04:56:52;15.20;99.90
47660;DHT22;33403;43.608;1.458;2023-04-30T04:59:17;15.20;99.90
47660;DHT22;33403;43.608;1.458;2023-04-30T05:01:43;15.20;99.90
47660;DHT22;33403;43.608;1.458;2023-04-30T05:04:09;15.20;99.90
47660;DHT22;33403;43.608;1.458;2023-04-30T05:06:34;15.20;99.90
47660;DHT22;33403;43.608;1.458;2023-04-30T05:09:00;15.30;99.90
47660;DHT22;33403;43.608;1.458;2023-04-30T05:11:27;15.20;99.90
47660;DHT22;33403;43.608;1.458;2023-04-30T05:13:52;15.20;99.90
47660;DHT22;33403;43.608;1.458;2023-04-30T05:16:18;15.30;99.90
47660;DHT22;33403;43.608;1.458;2023-04-30T05:18:44;15.30;99.90
47660;DHT22;33403;43.608;1.458;2023-04-30T05:21:09;15.30;99.90
47660;DHT22;33403;43.608;1.458;2023-04-30T05:23:35;15.20;99.90
47660;DHT22;33403;43.608;1.458;2023-04-30T05:26:01;15.30;99.90
47660;DHT22;33403;43.608;1.458;2023-04-30T05:28:26;15.30;99.90
47660;DHT22;33403;43.608;1.458;2023-04-30T05:30:52;15.20;99.90
47660;DHT22;33403;43.608;1.458;2023-04-30T05:33:18;15.20;99.90
47660;DHT22;33403;43.608;1.458;2023-04-30T05:35:43;15.20;99.90
47660;DHT22;33403;43.608;1.458;2023-04-30T05:38:09;15.20;99.90
47660;DHT22;33403;43.608;1.458;2023-04-30T05:40:34;15.20;99.90
47660;DHT22;33403;43.608;1.458;2023-04-30T05:43:00;15.20;99.90
47660;DHT22;33403;43.608;1.458;2023-04-30T05:45:26;15.20;99.90
47660;DHT22;33403;43.608;1.458;2023-04-30T05:47:52;15.20;99.90
47660;DHT22;33403;43.608;1.458;2023-04-30T05:50:17;15.20;99.90
47660;DHT22;33403;43.608;1.458;2023-04-30T05:52:43;15.20;99.90
47660;DHT22;33403;43.608;1.458;2023-04-30T05:55:09;15.20;99.90
47660;DHT22;33403;43.608;1.458;2023-04-30T05:57:35;15.20;99.90
47660;DHT22;33403;43.608;1.458;2023-04-30T06:00:01;15.20;99.90
47660;DHT22;33403;43.608;1.458;2023-04-30T06:02:30;15.20;99.90
47660;DHT22;33403;43.608;1.458;2023-04-30T06:04:56;15.20;99.90
47660;DHT22;33403;43.608;1.458;2023-04-30T06:07:22;15.20;99.90
47660;DHT22;33403;43.608;1.458;2023-04-30T06:09:47;15.30;99.90
47660;DHT22;33403;43.608;1.458;2023-04-30T06:12:13;15.20;99.90
47660;DHT22;33403;43.608;1.458;2023-04-30T06:14:39;15.20;99.90
47660;DHT22;33403;43.608;1.458;2023-04-30T06:17:07;15.20;99.90
47660;DHT22;33403;43.608;1.458;2023-04-30T06:19:33;15.30;99.90
47660;DHT22;33403;43.608;1.458;2023-04-30T06:21:58;15.30;99.90
47660;DHT22;33403;43.608;1.458;2023-04-30T06:24:24;15.20;99.90
47660;DHT22;33403;43.608;1.458;2023-04-30T06:26:52;15.20;99.90
47660;DHT22;33403;43.608;1.458;2023-04-30T06:29:17;15.20;99.90
47660;DHT22;33403;43.608;1.458;2023-04-30T06:31:43;15.30;99.90
47660;DHT22;33403;43.608;1.458;2023-04-30T06:34:08;15.30;99.90
47660;DHT22;33403;43.608;1.458;2023-04-30T06:36:34;15.30;99.90
47660;DHT22;33403;43.608;1.458;2023-04-30T06:39:00;15.20;99.90
47660;DHT22;33403;43.608;1.458;2023-04-30T06:41:25;15.20;99.90
47660;DHT22;33403;43.608;1.458;2023-04-30T06:43:51;15.30;99.90
47660;DHT22;33403;43.608;1.458;2023-04-30T06:46:16;15.40;99.90
47660;DHT22;33403;43.608;1.458;2023-04-30T06:48:42;15.50;99.90
47660;DHT22;33403;43.608;1.458;2023-04-30T06:51:08;15.50;99.90
47660;DHT22;33403;43.608;1.458;2023-04-30T06:53:33;15.60;99.90
47660;DHT22;33403;43.608;1.458;2023-04-30T06:55:59;15.50;99.90
47660;DHT22;33403;43.608;1.458;2023-04-30T06:58:25;15.50;99.90
47660;DHT22;33403;43.608;1.458;2023-04-30T07:00:51;15.50;99.90
47660;DHT22;33403;43.608;1.458;2023-04-30T07:03:16;15.50;99.90
47660;DHT22;33403;43.608;1.458;2023-04-30T07:05:42;15.60;99.90
47660;DHT22;33403;43.608;1.458;2023-04-30T07:08:08;15.60;99.90
47660;DHT22;33403;43.608;1.458;2023-04-30T07:10:34;15.60;99.90
47660;DHT22;33403;43.608;1.458;2023-04-30T07:12:59;15.60;99.90
47660;DHT22;33403;43.608;1.458;2023-04-30T07:15:25;15.60;99.90
47660;DHT22;33403;43.608;1.458;2023-04-30T07:17:51;15.60;99.90
47660;DHT22;33403;43.608;1.458;2023-04-30T07:20:16;15.60;99.90
47660;DHT22;33403;43.608;1.458;2023-04-30T07:22:43;15.60;99.90
47660;DHT22;33403;43.608;1.458;2023-04-30T07:25:13;15.50;99.90
47660;DHT22;33403;43.608;1.458;2023-04-30T07:27:39;15.50;99.90
47660;DHT22;33403;43.608;1.458;2023-04-30T07:30:06;15.50;99.90
47660;DHT22;33403;43.608;1.458;2023-04-30T07:32:34;15.50;99.90
47660;DHT22;33403;43.608;1.458;2023-04-30T07:34:59;15.60;99.90
47660;DHT22;33403;43.608;1.458;2023-04-30T07:37:25;15.50;99.90
47660;DHT22;33403;43.608;1.458;2023-04-30T07:39:51;15.60;99.90
47660;DHT22;33403;43.608;1.458;2023-04-30T07:42:17;15.70;99.90
47660;DHT22;33403;43.608;1.458;2023-04-30T07:44:42;15.60;99.90
47660;DHT22;33403;43.608;1.458;2023-04-30T07:47:08;15.60;99.90
47660;DHT22;33403;43.608;1.458;2023-04-30T07:49:34;15.60;99.90
47660;DHT22;33403;43.608;1.458;2023-04-30T07:52:00;15.60;99.90
47660;DHT22;33403;43.608;1.458;2023-04-30T07:54:26;15.60;99.90
47660;DHT22;33403;43.608;1.458;2023-04-30T07:56:52;15.50;99.90
47660;DHT22;33403;43.608;1.458;2023-04-30T07:59:18;15.50;99.90
47660;DHT22;33403;43.608;1.458;2023-04-30T08:01:45;15.50;99.90
47660;DHT22;33403;43.608;1.458;2023-04-30T08:04:11;15.60;99.90
47660;DHT22;33403;43.608;1.458;2023-04-30T08:06:37;15.50;99.90
47660;DHT22;33403;43.608;1.458;2023-04-30T08:09:03;15.60;99.90
47660;DHT22;33403;43.608;1.458;2023-04-30T08:11:29;15.60;99.90
47660;DHT22;33403;43.608;1.458;2023-04-30T08:13:54;15.60;99.90
47660;DHT22;33403;43.608;1.458;2023-04-30T08:16:20;15.60;99.90
47660;DHT22;33403;43.608;1.458;2023-04-30T08:18:46;15.60;99.90
47660;DHT22;33403;43.608;1.458;2023-04-30T08:21:14;15.60;99.90
47660;DHT22;33403;43.608;1.458;2023-04-30T08:23:39;15.70;99.90
47660;DHT22;33403;43.608;1.458;2023-04-30T08:26:05;15.70;99.90
47660;DHT22;33403;43.608;1.458;2023-04-30T08:28:31;15.70;99.90
47660;DHT22;33403;43.608;1.458;2023-04-30T08:30:56;15.70;99.90
47660;DHT22;33403;43.608;1.458;2023-04-30T08:33:22;15.70;99.90
47660;DHT22;33403;43.608;1.458;2023-04-30T08:35:48;15.70;99.90
47660;DHT22;33403;43.608;1.458;2023-04-30T08:38:13;15.60;99.90
47660;DHT22;33403;43.608;1.458;2023-04-30T08:40:39;15.60;99.90
47660;DHT22;33403;43.608;1.458;2023-04-30T08:43:07;15.60;99.90
47660;DHT22;33403;43.608;1.458;2023-04-30T08:45:35;15.60;99.90
47660;DHT22;33403;43.608;1.458;2023-04-30T08:48:02;15.50;99.90
47660;DHT22;33403;43.608;1.458;2023-04-30T08:50:29;15.50;99.90
47660;DHT22;33403;43.608;1.458;2023-04-30T08:52:57;15.50;99.90
47660;DHT22;33403;43.608;1.458;2023-04-30T08:55:24;15.50;99.90
47660;DHT22;33403;43.608;1.458;2023-04-30T08:57:51;15.50;99.90
47660;DHT22;33403;43.608;1.458;2023-04-30T09:00:16;15.50;99.90
47660;DHT22;33403;43.608;1.458;2023-04-30T09:02:43;15.50;99.90
47660;DHT22;33403;43.608;1.458;2023-04-30T09:05:14;15.50;99.90
47660;DHT22;33403;43.608;1.458;2023-04-30T09:07:41;15.50;99.90
47660;DHT22;33403;43.608;1.458;2023-04-30T09:10:18;15.40;99.90
47660;DHT22;33403;43.608;1.458;2023-04-30T09:12:57;15.40;99.90
47660;DHT22;33403;43.608;1.458;2023-04-30T09:15:24;15.40;99.90
47660;DHT22;33403;43.608;1.458;2023-04-30T09:17:50;15.40;99.90
47660;DHT22;33403;43.608;1.458;2023-04-30T09:20:16;15.40;99.90
47660;DHT22;33403;43.608;1.458;2023-04-30T09:22:43;15.40;99.90
47660;DHT22;33403;43.608;1.458;2023-04-30T09:25:09;15.40;99.90
47660;DHT22;33403;43.608;1.458;2023-04-30T09:27:35;15.40;99.90
47660;DHT22;33403;43.608;1.458;2023-04-30T09:30:01;15.40;99.90
47660;DHT22;33403;43.608;1.458;2023-04-30T09:32:27;15.40;99.90
47660;DHT22;33403;43.608;1.458;2023-04-30T09:34:54;15.50;99.90
47660;DHT22;33403;43.608;1.458;2023-04-30T09:37:20;15.60;99.90
47660;DHT22;33403;43.608;1.458;2023-04-30T09:39:52;15.70;99.90
47660;DHT22;33403;43.608;1.458;2023-04-30T09:42:18;15.70;99.90
47660;DHT22;33403;43.608;1.458;2023-04-30T09:44:44;15.80;99.90
47660;DHT22;33403;43.608;1.458;2023-04-30T09:47:12;15.70;99.90
47660;DHT22;33403;43.608;1.458;2023-04-30T09:49:40;15.80;99.90
47660;DHT22;33403;43.608;1.458;2023-04-30T09:52:07;15.80;99.90
47660;DHT22;33403;43.608;1.458;2023-04-30T09:54:33;15.90;99.90
47660;DHT22;33403;43.608;1.458;2023-04-30T09:57:00;15.90;99.90
47660;DHT22;33403;43.608;1.458;2023-04-30T09:59:31;16.00;99.90
47660;DHT22;33403;43.608;1.458;2023-04-30T10:02:01;16.00;99.90
47660;DHT22;33403;43.608;1.458;2023-04-30T10:04:32;15.90;99.90
47660;DHT22;33403;43.608;1.458;2023-04-30T10:07:02;15.90;99.90
47660;DHT22;33403;43.608;1.458;2023-04-30T10:09:38;15.90;99.90
47660;DHT22;33403;43.608;1.458;2023-04-30T10:12:09;15.80;99.90
47660;DHT22;33403;43.608;1.458;2023-04-30T10:14:36;15.90;99.90
47660;DHT22;33403;43.608;1.458;2023-04-30T10:17:07;15.90;99.90
47660;DHT22;33403;43.608;1.458;2023-04-30T10:19:38;15.90;99.90
47660;DHT22;33403;43.608;1.458;2023-04-30T10:22:08;15.90;99.90
47660;DHT22;33403;43.608;1.458;2023-04-30T10:24:35;15.90;99.90
47660;DHT22;33403;43.608;1.458;2023-04-30T10:27:02;16.00;99.90
47660;DHT22;33403;43.608;1.458;2023-04-30T10:29:28;16.10;99.90
47660;DHT22;33403;43.608;1.458;2023-04-30T10:31:54;16.20;99.90
47660;DHT22;33403;43.608;1.458;2023-04-30T10:34:53;16.20;99.90
47660;DHT22;33403;43.608;1.458;2023-04-30T10:37:47;16.30;99.90
47660;DHT22;33403;43.608;1.458;2023-04-30T10:40:15;16.60;99.90
47660;DHT22;33403;43.608;1.458;2023-04-30T10:42:48;17.00;99.90
47660;DHT22;33403;43.608;1.458;2023-04-30T10:45:17;17.40;99.90
47660;DHT22;33403;43.608;1.458;2023-04-30T10:47:45;17.60;99.90
47660;DHT22;33403;43.608;1.458;2023-04-30T10:50:11;17.50;99.90
47660;DHT22;33403;43.608;1.458;2023-04-30T10:52:38;17.50;99.90
47660;DHT22;33403;43.608;1.458;2023-04-30T10:55:07;17.40;99.90
47660;DHT22;33403;43.608;1.458;2023-04-30T10:57:40;17.20;99.90
47660;DHT22;33403;43.608;1.458;2023-04-30T11:02:43;17.20;99.90
47660;DHT22;33403;43.608;1.458;2023-04-30T11:05:11;17.10;99.90
47660;DHT22;33403;43.608;1.458;2023-04-30T11:07:58;17.00;99.90
47660;DHT22;33403;43.608;1.458;2023-04-30T11:10:25;16.90;99.90
47660;DHT22;33403;43.608;1.458;2023-04-30T11:12:54;16.90;99.90
47660;DHT22;33403;43.608;1.458;2023-04-30T11:15:24;16.80;99.90
47660;DHT22;33403;43.608;1.458;2023-04-30T11:17:50;16.70;99.90
47660;DHT22;33403;43.608;1.458;2023-04-30T11:20:21;16.60;99.90
47660;DHT22;33403;43.608;1.458;2023-04-30T11:22:47;16.60;99.90
47660;DHT22;33403;43.608;1.458;2023-04-30T11:25:18;16.60;99.90
47660;DHT22;33403;43.608;1.458;2023-04-30T11:27:44;16.60;99.90
47660;DHT22;33403;43.608;1.458;2023-04-30T11:30:15;16.80;99.90
47660;DHT22;33403;43.608;1.458;2023-04-30T11:32:43;16.90;99.90
47660;DHT22;33403;43.608;1.458;2023-04-30T11:35:14;16.80;99.90
47660;DHT22;33403;43.608;1.458;2023-04-30T11:37:42;16.80;99.90
47660;DHT22;33403;43.608;1.458;2023-04-30T11:40:10;16.70;99.90
47660;DHT22;33403;43.608;1.458;2023-04-30T11:42:37;16.70;99.90
47660;DHT22;33403;43.608;1.458;2023-04-30T11:45:15;16.70;99.90
47660;DHT22;33403;43.608;1.458;2023-04-30T11:50:18;16.70;99.90
47660;DHT22;33403;43.608;1.458;2023-04-30T11:52:50;16.70;99.90
47660;DHT22;33403;43.608;1.458;2023-04-30T11:55:18;16.90;99.90
47660;DHT22;33403;43.608;1.458;2023-04-30T11:57:46;17.00;99.90
47660;DHT22;33403;43.608;1.458;2023-04-30T12:00:17;17.20;99.90
47660;DHT22;33403;43.608;1.458;2023-04-30T12:02:45;17.50;99.90
47660;DHT22;33403;43.608;1.458;2023-04-30T12:05:12;17.70;99.90
47660;DHT22;33403;43.608;1.458;2023-04-30T12:07:44;17.90;99.90
47660;DHT22;33403;43.608;1.458;2023-04-30T12:10:11;18.00;99.90
47660;DHT22;33403;43.608;1.458;2023-04-30T12:12:36;17.90;99.90
47660;DHT22;33403;43.608;1.458;2023-04-30T12:15:19;17.90;99.90
47660;DHT22;33403;43.608;1.458;2023-04-30T12:17:47;18.10;99.90
47660;DHT22;33403;43.608;1.458;2023-04-30T12:20:14;18.20;99.90
47660;DHT22;33403;43.608;1.458;2023-04-30T12:22:43;18.20;99.90
47660;DHT22;33403;43.608;1.458;2023-04-30T12:25:14;18.20;99.90
47660;DHT22;33403;43.608;1.458;2023-04-30T12:27:53;18.30;99.90
47660;DHT22;33403;43.608;1.458;2023-04-30T12:30:25;18.40;99.90
47660;DHT22;33403;43.608;1.458;2023-04-30T12:32:56;18.30;99.90
47660;DHT22;33403;43.608;1.458;2023-04-30T12:35:23;18.40;99.90
47660;DHT22;33403;43.608;1.458;2023-04-30T12:38:00;18.50;99.90
47660;DHT22;33403;43.608;1.458;2023-04-30T12:40:26;18.80;99.90
47660;DHT22;33403;43.608;1.458;2023-04-30T12:42:59;18.70;99.90
47660;DHT22;33403;43.608;1.458;2023-04-30T12:48:11;18.50;99.90
47660;DHT22;33403;43.608;1.458;2023-04-30T12:50:37;18.40;99.90
47660;DHT22;33403;43.608;1.458;2023-04-30T12:53:06;18.50;99.90
47660;DHT22;33403;43.608;1.458;2023-04-30T12:55:32;18.60;99.90
47660;DHT22;33403;43.608;1.458;2023-04-30T13:00:41;18.70;99.90
47660;DHT22;33403;43.608;1.458;2023-04-30T13:03:07;18.90;99.90
47660;DHT22;33403;43.608;1.458;2023-04-30T13:05:32;19.20;99.90
47660;DHT22;33403;43.608;1.458;2023-04-30T13:08:02;19.10;99.90
47660;DHT22;33403;43.608;1.458;2023-04-30T13:10:30;19.10;99.90
47660;DHT22;33403;43.608;1.458;2023-04-30T13:12:56;19.20;99.90
47660;DHT22;33403;43.608;1.458;2023-04-30T13:15:22;19.20;99.90
47660;DHT22;33403;43.608;1.458;2023-04-30T13:17:47;19.10;99.90
47660;DHT22;33403;43.608;1.458;2023-04-30T13:20:15;19.00;99.90
47660;DHT22;33403;43.608;1.458;2023-04-30T13:22:40;18.90;99.90
47660;DHT22;33403;43.608;1.458;2023-04-30T13:25:06;18.70;99.90
47660;DHT22;33403;43.608;1.458;2023-04-30T13:27:32;18.70;99.90
47660;DHT22;33403;43.608;1.458;2023-04-30T13:29:59;18.70;99.90
47660;DHT22;33403;43.608;1.458;2023-04-30T13:32:25;18.80;99.90
47660;DHT22;33403;43.608;1.458;2023-04-30T13:34:51;19.00;99.90
47660;DHT22;33403;43.608;1.458;2023-04-30T13:37:19;19.10;99.90
47660;DHT22;33403;43.608;1.458;2023-04-30T13:39:45;19.10;99.90
47660;DHT22;33403;43.608;1.458;2023-04-30T13:42:12;19.10;99.90
47660;DHT22;33403;43.608;1.458;2023-04-30T13:44:38;19.30;99.90
47660;DHT22;33403;43.608;1.458;2023-04-30T13:47:05;19.40;99.90
47660;DHT22;33403;43.608;1.458;2023-04-30T13:49:30;19.50;99.90
47660;DHT22;33403;43.608;1.458;2023-04-30T13:51:56;19.50;99.90
47660;DHT22;33403;43.608;1.458;2023-04-30T13:54:22;19.50;99.90
47660;DHT22;33403;43.608;1.458;2023-04-30T13:56:47;19.50;99.90
47660;DHT22;33403;43.608;1.458;2023-04-30T13:59:14;19.60;99.90
47660;DHT22;33403;43.608;1.458;2023-04-30T14:01:40;19.80;99.90
47660;DHT22;33403;43.608;1.458;2023-04-30T14:04:06;19.90;99.90
47660;DHT22;33403;43.608;1.458;2023-04-30T14:06:33;19.90;99.90
47660;DHT22;33403;43.608;1.458;2023-04-30T14:08:58;19.90;99.90
47660;DHT22;33403;43.608;1.458;2023-04-30T14:11:25;19.80;99.90
47660;DHT22;33403;43.608;1.458;2023-04-30T14:13:51;19.80;99.90
47660;DHT22;33403;43.608;1.458;2023-04-30T14:16:18;19.60;99.90
47660;DHT22;33403;43.608;1.458;2023-04-30T14:18:45;19.60;99.90
47660;DHT22;33403;43.608;1.458;2023-04-30T14:21:11;19.80;99.90
47660;DHT22;33403;43.608;1.458;2023-04-30T14:23:36;20.00;99.90
47660;DHT22;33403;43.608;1.458;2023-04-30T14:26:03;20.10;99.90
47660;DHT22;33403;43.608;1.458;2023-04-30T14:28:29;20.00;99.90
47660;DHT22;33403;43.608;1.458;2023-04-30T14:30:55;20.10;99.90
47660;DHT22;33403;43.608;1.458;2023-04-30T14:33:20;20.10;99.90
47660;DHT22;33403;43.608;1.458;2023-04-30T14:35:46;20.10;99.90
47660;DHT22;33403;43.608;1.458;2023-04-30T14:38:12;20.20;99.90
47660;DHT22;33403;43.608;1.458;2023-04-30T14:40:38;20.30;99.90
47660;DHT22;33403;43.608;1.458;2023-04-30T14:43:04;20.20;99.90
47660;DHT22;33403;43.608;1.458;2023-04-30T14:45:31;20.20;99.90
47660;DHT22;33403;43.608;1.458;2023-04-30T14:47:57;20.10;99.90
47660;DHT22;33403;43.608;1.458;2023-04-30T14:50:23;19.90;99.90
47660;DHT22;33403;43.608;1.458;2023-04-30T14:52:49;19.70;99.90
47660;DHT22;33403;43.608;1.458;2023-04-30T14:55:15;19.60;99.90
47660;DHT22;33403;43.608;1.458;2023-04-30T14:57:40;19.60;99.90
47660;DHT22;33403;43.608;1.458;2023-04-30T15:00:07;19.70;99.90
47660;DHT22;33403;43.608;1.458;2023-04-30T15:02:32;19.80;99.90
47660;DHT22;33403;43.608;1.458;2023-04-30T15:04:58;19.60;99.90
47660;DHT22;33403;43.608;1.458;2023-04-30T15:07:24;19.50;99.90
47660;DHT22;33403;43.608;1.458;2023-04-30T15:09:49;19.70;99.90
47660;DHT22;33403;43.608;1.458;2023-04-30T15:12:15;19.70;99.90
47660;DHT22;33403;43.608;1.458;2023-04-30T15:14:41;19.70;99.90
47660;DHT22;33403;43.608;1.458;2023-04-30T15:17:07;19.70;99.90
47660;DHT22;33403;43.608;1.458;2023-04-30T15:19:32;19.60;99.90
47660;DHT22;33403;43.608;1.458;2023-04-30T15:21:58;19.60;99.90
47660;DHT22;33403;43.608;1.458;2023-04-30T15:24:24;19.40;99.90
47660;DHT22;33403;43.608;1.458;2023-04-30T15:26:50;19.30;99.90
47660;DHT22;33403;43.608;1.458;2023-04-30T15:29:18;19.30;99.90
47660;DHT22;33403;43.608;1.458;2023-04-30T15:31:44;19.40;99.90
47660;DHT22;33403;43.608;1.458;2023-04-30T15:34:10;19.50;99.90
47660;DHT22;33403;43.608;1.458;2023-04-30T15:36:35;19.70;99.90
47660;DHT22;33403;43.608;1.458;2023-04-30T15:39:01;19.70;99.90
47660;DHT22;33403;43.608;1.458;2023-04-30T15:41:27;19.60;99.90
47660;DHT22;33403;43.608;1.458;2023-04-30T15:43:53;19.40;99.90
47660;DHT22;33403;43.608;1.458;2023-04-30T15:46:19;19.20;99.90
47660;DHT22;33403;43.608;1.458;2023-04-30T15:48:44;19.10;99.90
47660;DHT22;33403;43.608;1.458;2023-04-30T15:51:10;18.90;99.90